sensor_id;sensor_type;location;lat;lon;timestamp;pressure;altitude;pressure_sealevel;temperature;humidity
13033;BME280;6583;42.632;23.298;2023-06-26T00:01:04;69401.69;;;-146.40;90.68
13033;BME280;6583;42.632;23.298;2023-06-26T00:03:31;69409.78;;;-146.40;90.93
13033;BME280;6583;42.632;23.298;2023-06-26T00:05:58;69409.78;;;-146.40;91.13
13033;BME280;6583;42.632;23.298;2023-06-26T00:08:26;69409.78;;;-146.40;91.49
13033;BME280;6583;42.632;23.298;2023-06-26T00:10:54;69405.72;;;-146.40;91.37
13033;BME280;6583;42.632;23.298;2023-06-26T00:13:22;69407.75;;;-146.40;91.07
13033;BME280;6583;42.632;23.298;2023-06-26T00:15:49;69403.69;;;-146.40;91.42
13033;BME280;6583;42.632;23.298;2023-06-26T00:18:16;69401.69;;;-146.40;91.21
13033;BME280;6583;42.632;23.298;2023-06-26T00:20:43;69397.63;;;-146.40;90.84
13033;BME280;6583;42.632;23.298;2023-06-26T00:23:11;69401.69;;;-146.40;91.16
13033;BME280;6583;42.632;23.298;2023-06-26T00:25:38;69401.69;;;-146.40;90.93
13033;BME280;6583;42.632;23.298;2023-06-26T00:28:06;69397.63;;;-146.40;90.64
13033;BME280;6583;42.632;23.298;2023-06-26T00:30:33;69397.63;;;-146.40;90.87
13033;BME280;6583;42.632;23.298;2023-06-26T00:33:00;69413.81;;;-146.40;91.21
13033;BME280;6583;42.632;23.298;2023-06-26T00:35:26;69411.78;;;-146.40;91.79
13033;BME280;6583;42.632;23.298;2023-06-26T00:37:53;69413.81;;;-146.40;91.74
13033;BME280;6583;42.632;23.298;2023-06-26T00:40:20;69417.84;;;-146.40;91.83
13033;BME280;6583;42.632;23.298;2023-06-26T00:42:46;69409.78;;;-146.40;91.86
13033;BME280;6583;42.632;23.298;2023-06-26T00:45:14;69415.84;;;-146.40;92.06
13033;BME280;6583;42.632;23.298;2023-06-26T00:47:41;69425.94;;;-146.40;92.40
13033;BME280;6583;42.632;23.298;2023-06-26T00:50:08;69425.94;;;-146.40;92.66
13033;BME280;6583;42.632;23.298;2023-06-26T00:52:35;69430.00;;;-146.40;92.60
13033;BME280;6583;42.632;23.298;2023-06-26T00:55:02;69432.03;;;-146.40;92.73
13033;BME280;6583;42.632;23.298;2023-06-26T00:57:29;69438.09;;;-146.40;93.44
13033;BME280;6583;42.632;23.298;2023-06-26T00:59:56;69444.16;;;-146.40;93.61
13033;BME280;6583;42.632;23.298;2023-06-26T01:02:24;69438.09;;;-146.40;93.50
13033;BME280;6583;42.632;23.298;2023-06-26T01:04:59;69434.03;;;-146.40;93.37
13033;BME280;6583;42.632;23.298;2023-06-26T01:07:28;69423.94;;;-146.40;92.56
13033;BME280;6583;42.632;23.298;2023-06-26T01:09:57;69415.84;;;-146.40;92.25
13033;BME280;6583;42.632;23.298;2023-06-26T01:12:25;69409.78;;;-146.40;91.33
13033;BME280;6583;42.632;23.298;2023-06-26T01:14:51;69403.69;;;-146.40;91.49
13033;BME280;6583;42.632;23.298;2023-06-26T01:17:19;69397.63;;;-146.40;91.22
13033;BME280;6583;42.632;23.298;2023-06-26T01:19:48;69397.63;;;-146.40;91.25
13033;BME280;6583;42.632;23.298;2023-06-26T01:22:19;69395.59;;;-146.40;89.84
13033;BME280;6583;42.632;23.298;2023-06-26T01:25:00;69389.53;;;-146.40;89.46
13033;BME280;6583;42.632;23.298;2023-06-26T01:27:30;69389.53;;;-146.40;88.87
13033;BME280;6583;42.632;23.298;2023-06-26T01:30:00;69389.53;;;-146.40;88.68
13033;BME280;6583;42.632;23.298;2023-06-26T01:32:32;69391.56;;;-146.40;88.64
13033;BME280;6583;42.632;23.298;2023-06-26T01:35:00;69389.53;;;-146.40;88.82
13033;BME280;6583;42.632;23.298;2023-06-26T01:37:28;69393.59;;;-146.40;88.59
13033;BME280;6583;42.632;23.298;2023-06-26T01:39:55;69389.53;;;-146.40;88.18
13033;BME280;6583;42.632;23.298;2023-06-26T01:42:21;69389.53;;;-146.40;87.98
13033;BME280;6583;42.632;23.298;2023-06-26T01:44:50;69385.50;;;-146.40;88.10
13033;BME280;6583;42.632;23.298;2023-06-26T01:47:22;69389.53;;;-146.40;88.54
13033;BME280;6583;42.632;23.298;2023-06-26T01:49:56;69393.59;;;-146.40;87.80
13033;BME280;6583;42.632;23.298;2023-06-26T01:52:30;69399.66;;;-146.40;88.33
13033;BME280;6583;42.632;23.298;2023-06-26T01:55:05;69395.59;;;-146.40;88.63
13033;BME280;6583;42.632;23.298;2023-06-26T01:57:35;69401.69;;;-146.40;88.48
13033;BME280;6583;42.632;23.298;2023-06-26T02:00:05;69401.69;;;-146.40;88.70
13033;BME280;6583;42.632;23.298;2023-06-26T02:02:35;69411.78;;;-146.40;89.42
13033;BME280;6583;42.632;23.298;2023-06-26T02:05:02;69409.78;;;-146.40;89.38
13033;BME280;6583;42.632;23.298;2023-06-26T02:07:29;69409.78;;;-146.40;89.66
13033;BME280;6583;42.632;23.298;2023-06-26T02:09:56;69413.81;;;-146.40;89.33
13033;BME280;6583;42.632;23.298;2023-06-26T02:12:22;69407.75;;;-146.40;89.17
13033;BME280;6583;42.632;23.298;2023-06-26T02:14:49;69407.75;;;-146.40;88.82
13033;BME280;6583;42.632;23.298;2023-06-26T02:17:17;69401.69;;;-146.40;89.50
13033;BME280;6583;42.632;23.298;2023-06-26T02:19:44;69407.75;;;-146.40;89.14
13033;BME280;6583;42.632;23.298;2023-06-26T02:22:13;69409.78;;;-146.40;88.90
13033;BME280;6583;42.632;23.298;2023-06-26T02:24:40;69417.84;;;-146.40;89.00
13033;BME280;6583;42.632;23.298;2023-06-26T02:27:06;69421.91;;;-146.40;89.27
13033;BME280;6583;42.632;23.298;2023-06-26T02:29:33;69415.84;;;-146.40;89.90
13033;BME280;6583;42.632;23.298;2023-06-26T02:32:00;69413.81;;;-146.40;89.66
13033;BME280;6583;42.632;23.298;2023-06-26T02:34:28;69415.84;;;-146.40;89.46
13033;BME280;6583;42.632;23.298;2023-06-26T02:36:55;69415.84;;;-146.40;89.35
13033;BME280;6583;42.632;23.298;2023-06-26T02:39:24;69421.91;;;-146.40;88.88
13033;BME280;6583;42.632;23.298;2023-06-26T02:41:50;69430.00;;;-146.40;89.45
13033;BME280;6583;42.632;23.298;2023-06-26T02:44:17;69430.00;;;-146.40;89.20
13033;BME280;6583;42.632;23.298;2023-06-26T02:46:44;69442.13;;;-146.40;89.09
13033;BME280;6583;42.632;23.298;2023-06-26T02:49:10;69442.13;;;-146.40;89.11
13033;BME280;6583;42.632;23.298;2023-06-26T02:51:38;69434.03;;;-146.40;89.60
13033;BME280;6583;42.632;23.298;2023-06-26T02:54:05;69438.09;;;-146.40;89.74
13033;BME280;6583;42.632;23.298;2023-06-26T02:56:32;69440.09;;;-146.40;89.92
13033;BME280;6583;42.632;23.298;2023-06-26T02:58:58;69438.09;;;-146.40;90.10
13033;BME280;6583;42.632;23.298;2023-06-26T03:01:25;69450.22;;;-146.40;90.68
13033;BME280;6583;42.632;23.298;2023-06-26T03:03:52;69450.22;;;-146.40;90.04
13033;BME280;6583;42.632;23.298;2023-06-26T03:06:19;69450.22;;;-146.40;90.37
13033;BME280;6583;42.632;23.298;2023-06-26T03:08:47;69460.34;;;-146.40;90.68
13033;BME280;6583;42.632;23.298;2023-06-26T03:11:14;69450.22;;;-146.40;90.77
13033;BME280;6583;42.632;23.298;2023-06-26T03:13:41;69454.25;;;-146.40;89.94
13033;BME280;6583;42.632;23.298;2023-06-26T03:16:07;69450.22;;;-146.40;90.08
13033;BME280;6583;42.632;23.298;2023-06-26T03:18:34;69452.25;;;-146.40;89.65
13033;BME280;6583;42.632;23.298;2023-06-26T03:21:01;69462.34;;;-146.40;89.92
13033;BME280;6583;42.632;23.298;2023-06-26T03:23:27;69458.31;;;-146.40;89.69
13033;BME280;6583;42.632;23.298;2023-06-26T03:25:55;69450.22;;;-146.40;89.80
13033;BME280;6583;42.632;23.298;2023-06-26T03:28:22;69452.25;;;-146.40;89.78
13033;BME280;6583;42.632;23.298;2023-06-26T03:30:49;69452.25;;;-146.40;90.05
13033;BME280;6583;42.632;23.298;2023-06-26T03:33:15;69444.16;;;-146.40;90.00
13033;BME280;6583;42.632;23.298;2023-06-26T03:35:42;69454.25;;;-146.40;90.17
13033;BME280;6583;42.632;23.298;2023-06-26T03:38:09;69442.13;;;-146.40;90.29
13033;BME280;6583;42.632;23.298;2023-06-26T03:40:36;69452.25;;;-146.40;89.79
13033;BME280;6583;42.632;23.298;2023-06-26T03:43:04;69454.25;;;-146.40;90.31
13033;BME280;6583;42.632;23.298;2023-06-26T03:45:31;69446.19;;;-146.40;90.08
13033;BME280;6583;42.632;23.298;2023-06-26T03:47:57;69450.22;;;-146.40;89.90
13033;BME280;6583;42.632;23.298;2023-06-26T03:50:24;69448.19;;;-146.40;90.40
13033;BME280;6583;42.632;23.298;2023-06-26T03:52:50;69436.06;;;-146.40;90.72
13033;BME280;6583;42.632;23.298;2023-06-26T03:55:19;69440.09;;;-146.40;90.31
13033;BME280;6583;42.632;23.298;2023-06-26T03:57:46;69442.13;;;-146.40;90.01
13033;BME280;6583;42.632;23.298;2023-06-26T04:00:15;69438.09;;;-146.40;89.91
13033;BME280;6583;42.632;23.298;2023-06-26T04:02:42;69440.09;;;-146.40;89.75
13033;BME280;6583;42.632;23.298;2023-06-26T04:05:08;69438.09;;;-146.40;89.55
13033;BME280;6583;42.632;23.298;2023-06-26T04:07:37;69450.22;;;-146.40;89.73
13033;BME280;6583;42.632;23.298;2023-06-26T04:10:04;69454.25;;;-146.40;90.20
13033;BME280;6583;42.632;23.298;2023-06-26T04:12:31;69444.16;;;-146.40;89.90
13033;BME280;6583;42.632;23.298;2023-06-26T04:14:58;69446.19;;;-146.40;89.57
13033;BME280;6583;42.632;23.298;2023-06-26T04:17:26;69446.19;;;-146.40;89.68
13033;BME280;6583;42.632;23.298;2023-06-26T04:19:52;69440.09;;;-146.40;89.58
13033;BME280;6583;42.632;23.298;2023-06-26T04:22:19;69430.00;;;-146.40;89.53
13033;BME280;6583;42.632;23.298;2023-06-26T04:24:46;69430.00;;;-146.40;89.78
13033;BME280;6583;42.632;23.298;2023-06-26T04:27:12;69427.97;;;-146.40;88.55
13033;BME280;6583;42.632;23.298;2023-06-26T04:29:40;69434.03;;;-146.40;88.55
13033;BME280;6583;42.632;23.298;2023-06-26T04:32:07;69430.00;;;-146.40;88.41
13033;BME280;6583;42.632;23.298;2023-06-26T04:34:35;69434.03;;;-146.40;88.34
13033;BME280;6583;42.632;23.298;2023-06-26T04:37:06;69442.13;;;-146.40;88.35
13033;BME280;6583;42.632;23.298;2023-06-26T04:39:35;69430.00;;;-146.40;88.79
13033;BME280;6583;42.632;23.298;2023-06-26T04:42:02;69419.88;;;-146.40;88.41
13033;BME280;6583;42.632;23.298;2023-06-26T04:44:29;69411.78;;;-146.40;88.84
13033;BME280;6583;42.632;23.298;2023-06-26T04:46:55;69397.63;;;-146.40;88.82
13033;BME280;6583;42.632;23.298;2023-06-26T04:49:22;69393.59;;;-146.40;88.31
13033;BME280;6583;42.632;23.298;2023-06-26T04:51:50;69389.53;;;-146.40;87.75
13033;BME280;6583;42.632;23.298;2023-06-26T04:54:17;69393.59;;;-146.40;87.19
13033;BME280;6583;42.632;23.298;2023-06-26T04:56:43;69385.50;;;-146.40;86.71
13033;BME280;6583;42.632;23.298;2023-06-26T04:59:12;69391.56;;;-146.40;87.74
13033;BME280;6583;42.632;23.298;2023-06-26T05:01:39;69371.34;;;-146.40;88.58
13033;BME280;6583;42.632;23.298;2023-06-26T05:04:06;69357.19;;;-146.40;88.97
13033;BME280;6583;42.632;23.298;2023-06-26T05:06:33;69343.03;;;-146.40;87.66
13033;BME280;6583;42.632;23.298;2023-06-26T05:09:01;69326.84;;;-146.40;86.97
13033;BME280;6583;42.632;23.298;2023-06-26T05:11:28;69318.75;;;-146.40;85.53
13033;BME280;6583;42.632;23.298;2023-06-26T05:13:55;69326.84;;;-146.40;84.86
13033;BME280;6583;42.632;23.298;2023-06-26T05:16:22;69308.63;;;-146.40;85.85
13033;BME280;6583;42.632;23.298;2023-06-26T05:18:48;69304.59;;;-146.40;84.84
13033;BME280;6583;42.632;23.298;2023-06-26T05:21:15;69308.63;;;-146.40;84.00
13033;BME280;6583;42.632;23.298;2023-06-26T05:23:42;69302.56;;;-146.40;84.19
13033;BME280;6583;42.632;23.298;2023-06-26T05:26:12;69310.66;;;-146.40;84.59
13033;BME280;6583;42.632;23.298;2023-06-26T05:28:40;69304.59;;;-146.40;84.09
13033;BME280;6583;42.632;23.298;2023-06-26T05:31:07;69300.56;;;-146.40;84.18
13033;BME280;6583;42.632;23.298;2023-06-26T05:33:35;69298.53;;;-146.40;84.40
13033;BME280;6583;42.632;23.298;2023-06-26T05:36:04;69298.53;;;-146.40;83.32
13033;BME280;6583;42.632;23.298;2023-06-26T05:38:31;69304.59;;;-146.40;83.05
13033;BME280;6583;42.632;23.298;2023-06-26T05:40:59;69326.84;;;-146.40;82.00
13033;BME280;6583;42.632;23.298;2023-06-26T05:43:27;69324.81;;;-146.40;83.91
13033;BME280;6583;42.632;23.298;2023-06-26T05:45:53;69316.72;;;-146.40;83.77
13033;BME280;6583;42.632;23.298;2023-06-26T05:48:20;69322.78;;;-146.40;84.04
13033;BME280;6583;42.632;23.298;2023-06-26T05:50:47;69330.88;;;-146.40;83.26
13033;BME280;6583;42.632;23.298;2023-06-26T05:53:14;69330.88;;;-146.40;85.06
13033;BME280;6583;42.632;23.298;2023-06-26T05:55:42;69332.91;;;-146.40;85.61
13033;BME280;6583;42.632;23.298;2023-06-26T05:58:10;69326.84;;;-146.40;86.30
13033;BME280;6583;42.632;23.298;2023-06-26T06:00:39;69316.72;;;-146.40;84.85
13033;BME280;6583;42.632;23.298;2023-06-26T06:03:06;69314.72;;;-146.40;85.10
13033;BME280;6583;42.632;23.298;2023-06-26T06:05:35;69296.50;;;-146.40;85.09
13033;BME280;6583;42.632;23.298;2023-06-26T06:08:02;69292.47;;;-146.40;84.36
13033;BME280;6583;42.632;23.298;2023-06-26T06:10:28;69296.50;;;-146.40;82.42
13033;BME280;6583;42.632;23.298;2023-06-26T06:12:55;69274.25;;;-146.40;82.57
13033;BME280;6583;42.632;23.298;2023-06-26T06:15:22;69272.25;;;-146.40;83.38
13033;BME280;6583;42.632;23.298;2023-06-26T06:17:50;69278.31;;;-146.40;82.73
13033;BME280;6583;42.632;23.298;2023-06-26T06:20:16;69272.25;;;-146.40;82.51
13033;BME280;6583;42.632;23.298;2023-06-26T06:22:44;69268.19;;;-146.40;82.18
13033;BME280;6583;42.632;23.298;2023-06-26T06:25:11;69272.25;;;-146.40;80.51
13033;BME280;6583;42.632;23.298;2023-06-26T06:27:38;69262.13;;;-146.40;81.84
13033;BME280;6583;42.632;23.298;2023-06-26T06:30:06;69256.06;;;-146.40;81.51
13033;BME280;6583;42.632;23.298;2023-06-26T06:32:33;69254.03;;;-146.40;80.49
13033;BME280;6583;42.632;23.298;2023-06-26T06:35:01;69256.06;;;-146.40;80.04
13033;BME280;6583;42.632;23.298;2023-06-26T06:37:34;69274.25;;;-146.40;79.64
13033;BME280;6583;42.632;23.298;2023-06-26T06:40:01;69276.28;;;-146.40;81.89
13033;BME280;6583;42.632;23.298;2023-06-26T06:42:28;69272.25;;;-146.40;81.05
13033;BME280;6583;42.632;23.298;2023-06-26T06:44:55;69241.91;;;-146.40;82.82
13033;BME280;6583;42.632;23.298;2023-06-26T06:47:22;69233.81;;;-146.40;79.69
13033;BME280;6583;42.632;23.298;2023-06-26T06:49:48;69199.44;;;-146.40;79.76
13033;BME280;6583;42.632;23.298;2023-06-26T06:52:16;69165.03;;;-146.40;78.37
13033;BME280;6583;42.632;23.298;2023-06-26T06:54:53;69136.72;;;-146.40;76.82
13033;BME280;6583;42.632;23.298;2023-06-26T06:57:20;69106.41;;;-146.40;75.77
13033;BME280;6583;42.632;23.298;2023-06-26T06:59:47;69086.19;;;-146.40;71.20
13033;BME280;6583;42.632;23.298;2023-06-26T07:02:14;69055.84;;;-146.40;70.81
13033;BME280;6583;42.632;23.298;2023-06-26T07:04:40;69025.50;;;-146.40;70.48
13033;BME280;6583;42.632;23.298;2023-06-26T07:07:07;69005.28;;;-146.40;68.22
13033;BME280;6583;42.632;23.298;2023-06-26T07:09:35;68999.22;;;-146.40;66.74
13033;BME280;6583;42.632;23.298;2023-06-26T07:12:03;69005.28;;;-146.40;68.21
13033;BME280;6583;42.632;23.298;2023-06-26T07:14:30;69013.38;;;-146.40;67.05
13033;BME280;6583;42.632;23.298;2023-06-26T07:16:57;68993.16;;;-146.40;69.47
13033;BME280;6583;42.632;23.298;2023-06-26T07:19:23;68981.00;;;-146.40;67.35
13033;BME280;6583;42.632;23.298;2023-06-26T07:21:50;68954.72;;;-146.40;66.77
13033;BME280;6583;42.632;23.298;2023-06-26T07:24:17;68944.63;;;-146.40;67.15
13033;BME280;6583;42.632;23.298;2023-06-26T07:26:45;68956.75;;;-146.40;62.42
13033;BME280;6583;42.632;23.298;2023-06-26T07:29:11;68964.84;;;-146.40;62.53
13033;BME280;6583;42.632;23.298;2023-06-26T07:31:38;68946.63;;;-146.40;64.10
13033;BME280;6583;42.632;23.298;2023-06-26T07:34:04;68968.88;;;-146.40;65.40
13033;BME280;6583;42.632;23.298;2023-06-26T07:36:31;68974.94;;;-146.40;66.79
13033;BME280;6583;42.632;23.298;2023-06-26T07:38:58;68942.59;;;-146.40;65.01
13033;BME280;6583;42.632;23.298;2023-06-26T07:41:24;68934.50;;;-146.40;63.17
13033;BME280;6583;42.632;23.298;2023-06-26T07:43:52;68924.38;;;-146.40;63.58
13033;BME280;6583;42.632;23.298;2023-06-26T07:46:19;68904.16;;;-146.40;59.80
13033;BME280;6583;42.632;23.298;2023-06-26T07:48:46;68883.94;;;-146.40;55.75
13033;BME280;6583;42.632;23.298;2023-06-26T07:51:12;68885.97;;;-146.40;59.02
13033;BME280;6583;42.632;23.298;2023-06-26T07:53:39;68900.13;;;-146.40;57.29
13033;BME280;6583;42.632;23.298;2023-06-26T07:56:06;68910.22;;;-146.40;58.24
13033;BME280;6583;42.632;23.298;2023-06-26T07:58:33;68942.59;;;-146.40;57.17
13033;BME280;6583;42.632;23.298;2023-06-26T08:01:01;68920.34;;;-146.40;59.36
13033;BME280;6583;42.632;23.298;2023-06-26T08:03:28;68918.31;;;-146.40;57.16
13033;BME280;6583;42.632;23.298;2023-06-26T08:05:54;68936.53;;;-146.40;57.40
13033;BME280;6583;42.632;23.298;2023-06-26T08:08:21;68936.53;;;-146.40;59.94
13033;BME280;6583;42.632;23.298;2023-06-26T08:10:48;68928.44;;;-146.40;58.81
13033;BME280;6583;42.632;23.298;2023-06-26T08:13:14;68904.16;;;-146.40;60.64
13033;BME280;6583;42.632;23.298;2023-06-26T08:15:41;68888.00;;;-146.40;57.23
13033;BME280;6583;42.632;23.298;2023-06-26T08:18:09;68875.84;;;-146.40;58.21
13033;BME280;6583;42.632;23.298;2023-06-26T08:20:36;68863.72;;;-146.40;53.93
13033;BME280;6583;42.632;23.298;2023-06-26T08:23:03;68845.53;;;-146.40;57.38
13033;BME280;6583;42.632;23.298;2023-06-26T08:25:30;68829.34;;;-146.40;55.70
13033;BME280;6583;42.632;23.298;2023-06-26T08:27:56;68821.25;;;-146.40;53.70
13033;BME280;6583;42.632;23.298;2023-06-26T08:30:23;68811.16;;;-146.40;54.15
13033;BME280;6583;42.632;23.298;2023-06-26T08:32:53;68843.50;;;-146.40;55.26
13033;BME280;6583;42.632;23.298;2023-06-26T08:35:21;68869.78;;;-146.40;54.42
13033;BME280;6583;42.632;23.298;2023-06-26T08:37:48;68871.81;;;-146.40;56.24
13033;BME280;6583;42.632;23.298;2023-06-26T08:40:17;68879.91;;;-146.40;56.98
13033;BME280;6583;42.632;23.298;2023-06-26T08:42:44;68902.16;;;-146.40;55.09
13033;BME280;6583;42.632;23.298;2023-06-26T08:45:10;68954.72;;;-146.40;56.29
13033;BME280;6583;42.632;23.298;2023-06-26T08:47:37;68952.69;;;-146.40;57.09
13033;BME280;6583;42.632;23.298;2023-06-26T08:50:07;68944.63;;;-146.40;57.05
13033;BME280;6583;42.632;23.298;2023-06-26T08:52:41;68918.31;;;-146.40;59.14
13033;BME280;6583;42.632;23.298;2023-06-26T08:55:10;68910.22;;;-146.40;55.18
13033;BME280;6583;42.632;23.298;2023-06-26T08:57:38;68916.31;;;-146.40;55.35
13033;BME280;6583;42.632;23.298;2023-06-26T09:00:06;68920.34;;;-146.40;53.85
13033;BME280;6583;42.632;23.298;2023-06-26T09:02:34;68898.09;;;-146.40;54.64
13033;BME280;6583;42.632;23.298;2023-06-26T09:05:01;68879.91;;;-146.40;53.17
13033;BME280;6583;42.632;23.298;2023-06-26T09:07:29;68871.81;;;-146.40;54.87
13033;BME280;6583;42.632;23.298;2023-06-26T09:09:57;68847.53;;;-146.40;54.84
13033;BME280;6583;42.632;23.298;2023-06-26T09:12:26;68835.41;;;-146.40;52.46
13033;BME280;6583;42.632;23.298;2023-06-26T09:14:53;68819.22;;;-146.40;52.72
13033;BME280;6583;42.632;23.298;2023-06-26T09:17:24;68807.09;;;-146.40;51.95
13033;BME280;6583;42.632;23.298;2023-06-26T09:19:51;68790.94;;;-146.40;51.47
13033;BME280;6583;42.632;23.298;2023-06-26T09:22:17;68788.91;;;-146.40;50.78
13033;BME280;6583;42.632;23.298;2023-06-26T09:24:44;68786.88;;;-146.40;51.16
13033;BME280;6583;42.632;23.298;2023-06-26T09:27:13;68776.78;;;-146.40;50.13
13033;BME280;6583;42.632;23.298;2023-06-26T09:29:40;68784.84;;;-146.40;49.28
13033;BME280;6583;42.632;23.298;2023-06-26T09:32:07;68784.84;;;-146.40;50.97
13033;BME280;6583;42.632;23.298;2023-06-26T09:34:34;68797.00;;;-146.40;50.93
13033;BME280;6583;42.632;23.298;2023-06-26T09:37:01;68801.03;;;-146.40;49.46
13033;BME280;6583;42.632;23.298;2023-06-26T09:39:30;68772.72;;;-146.40;52.07
13033;BME280;6583;42.632;23.298;2023-06-26T09:41:58;68758.56;;;-146.40;52.05
13033;BME280;6583;42.632;23.298;2023-06-26T09:44:26;68748.47;;;-146.40;51.25
13033;BME280;6583;42.632;23.298;2023-06-26T09:46:55;68744.41;;;-146.40;51.70
13033;BME280;6583;42.632;23.298;2023-06-26T09:49:23;68746.44;;;-146.40;49.71
13033;BME280;6583;42.632;23.298;2023-06-26T09:51:51;68766.66;;;-146.40;48.32
13033;BME280;6583;42.632;23.298;2023-06-26T09:54:18;68786.88;;;-146.40;48.52
13033;BME280;6583;42.632;23.298;2023-06-26T09:56:47;68794.97;;;-146.40;48.91
13033;BME280;6583;42.632;23.298;2023-06-26T09:59:15;68843.50;;;-146.40;47.87
13033;BME280;6583;42.632;23.298;2023-06-26T10:01:45;68823.28;;;-146.40;49.35
13033;BME280;6583;42.632;23.298;2023-06-26T10:04:12;68833.38;;;-146.40;49.25
13033;BME280;6583;42.632;23.298;2023-06-26T10:06:42;68819.22;;;-146.40;50.45
13033;BME280;6583;42.632;23.298;2023-06-26T10:09:11;68813.16;;;-146.40;49.62
13033;BME280;6583;42.632;23.298;2023-06-26T10:11:41;68790.94;;;-146.40;49.31
13033;BME280;6583;42.632;23.298;2023-06-26T10:14:11;68766.66;;;-146.40;48.95
13033;BME280;6583;42.632;23.298;2023-06-26T10:16:39;68762.63;;;-146.40;47.33
13033;BME280;6583;42.632;23.298;2023-06-26T10:19:10;68740.38;;;-146.40;46.94
13033;BME280;6583;42.632;23.298;2023-06-26T10:21:38;68732.28;;;-146.40;47.07
13033;BME280;6583;42.632;23.298;2023-06-26T10:24:06;68710.03;;;-146.40;46.16
13033;BME280;6583;42.632;23.298;2023-06-26T10:26:35;68701.94;;;-146.40;45.67
13033;BME280;6583;42.632;23.298;2023-06-26T10:29:05;68714.09;;;-146.40;45.96
13033;BME280;6583;42.632;23.298;2023-06-26T10:31:35;68750.47;;;-146.40;44.27
13033;BME280;6583;42.632;23.298;2023-06-26T10:34:02;68738.34;;;-146.40;46.07
13033;BME280;6583;42.632;23.298;2023-06-26T10:36:31;68764.63;;;-146.40;45.72
13033;BME280;6583;42.632;23.298;2023-06-26T10:38:59;68754.53;;;-146.40;46.84
13033;BME280;6583;42.632;23.298;2023-06-26T10:41:36;68778.78;;;-146.40;46.59
13033;BME280;6583;42.632;23.298;2023-06-26T10:44:09;68803.06;;;-146.40;46.29
13033;BME280;6583;42.632;23.298;2023-06-26T10:46:49;68835.41;;;-146.40;47.85
13033;BME280;6583;42.632;23.298;2023-06-26T10:49:18;68839.47;;;-146.40;48.02
13033;BME280;6583;42.632;23.298;2023-06-26T10:51:49;68879.91;;;-146.40;47.77
13033;BME280;6583;42.632;23.298;2023-06-26T10:54:18;68881.91;;;-146.40;49.01
13033;BME280;6583;42.632;23.298;2023-06-26T10:56:45;68875.84;;;-146.40;49.51
13033;BME280;6583;42.632;23.298;2023-06-26T10:59:17;68879.91;;;-146.40;48.57
13033;BME280;6583;42.632;23.298;2023-06-26T11:01:45;68890.00;;;-146.40;47.87
13033;BME280;6583;42.632;23.298;2023-06-26T11:04:13;68879.91;;;-146.40;48.68
13033;BME280;6583;42.632;23.298;2023-06-26T11:06:45;68875.84;;;-146.40;47.70
13033;BME280;6583;42.632;23.298;2023-06-26T11:09:23;68890.00;;;-146.40;49.62
13033;BME280;6583;42.632;23.298;2023-06-26T11:11:59;68873.84;;;-146.40;49.20
13033;BME280;6583;42.632;23.298;2023-06-26T11:14:30;68890.00;;;-146.40;48.91
13033;BME280;6583;42.632;23.298;2023-06-26T11:16:58;68888.00;;;-146.40;50.45
13033;BME280;6583;42.632;23.298;2023-06-26T11:19:26;68912.25;;;-146.40;49.33
13033;BME280;6583;42.632;23.298;2023-06-26T11:21:58;68892.03;;;-146.40;50.29
13033;BME280;6583;42.632;23.298;2023-06-26T11:24:28;68877.88;;;-146.40;50.70
13033;BME280;6583;42.632;23.298;2023-06-26T11:27:00;68881.91;;;-146.40;50.03
13033;BME280;6583;42.632;23.298;2023-06-26T11:29:27;68890.00;;;-146.40;48.28
13033;BME280;6583;42.632;23.298;2023-06-26T11:31:59;68877.88;;;-146.40;49.03
13033;BME280;6583;42.632;23.298;2023-06-26T11:34:29;68869.78;;;-146.40;49.80
13033;BME280;6583;42.632;23.298;2023-06-26T11:36:57;68875.84;;;-146.40;49.60
13033;BME280;6583;42.632;23.298;2023-06-26T11:39:27;68877.88;;;-146.40;50.35
13033;BME280;6583;42.632;23.298;2023-06-26T11:41:54;68869.78;;;-146.40;48.57
13033;BME280;6583;42.632;23.298;2023-06-26T11:44:21;68863.72;;;-146.40;48.27
13033;BME280;6583;42.632;23.298;2023-06-26T11:46:51;68873.84;;;-146.40;49.19
13033;BME280;6583;42.632;23.298;2023-06-26T11:49:20;68859.69;;;-146.40;50.60
13033;BME280;6583;42.632;23.298;2023-06-26T11:51:48;68847.53;;;-146.40;50.77
13033;BME280;6583;42.632;23.298;2023-06-26T11:54:15;68835.41;;;-146.40;50.21
13033;BME280;6583;42.632;23.298;2023-06-26T11:56:43;68833.38;;;-146.40;49.49
13033;BME280;6583;42.632;23.298;2023-06-26T11:59:11;68827.31;;;-146.40;48.84
13033;BME280;6583;42.632;23.298;2023-06-26T12:01:39;68819.22;;;-146.40;47.12
13033;BME280;6583;42.632;23.298;2023-06-26T12:04:07;68815.19;;;-146.40;46.73
13033;BME280;6583;42.632;23.298;2023-06-26T12:06:36;68801.03;;;-146.40;46.01
13033;BME280;6583;42.632;23.298;2023-06-26T12:09:05;68813.16;;;-146.40;47.26
13033;BME280;6583;42.632;23.298;2023-06-26T12:11:34;68807.09;;;-146.40;47.88
13033;BME280;6583;42.632;23.298;2023-06-26T12:14:03;68799.00;;;-146.40;48.15
13033;BME280;6583;42.632;23.298;2023-06-26T12:16:30;68784.84;;;-146.40;46.77
13033;BME280;6583;42.632;23.298;2023-06-26T12:18:58;68766.66;;;-146.40;47.27
13033;BME280;6583;42.632;23.298;2023-06-26T12:21:28;68754.53;;;-146.40;45.72
13033;BME280;6583;42.632;23.298;2023-06-26T12:23:58;68754.53;;;-146.40;46.91
13033;BME280;6583;42.632;23.298;2023-06-26T12:26:27;68746.44;;;-146.40;45.73
13033;BME280;6583;42.632;23.298;2023-06-26T12:29:03;68742.38;;;-146.40;45.94
13033;BME280;6583;42.632;23.298;2023-06-26T12:31:30;68738.34;;;-146.40;45.47
13033;BME280;6583;42.632;23.298;2023-06-26T12:33:57;68738.34;;;-146.40;43.79
13033;BME280;6583;42.632;23.298;2023-06-26T12:36:24;68742.38;;;-146.40;45.11
13033;BME280;6583;42.632;23.298;2023-06-26T12:38:54;68750.47;;;-146.40;44.81
13033;BME280;6583;42.632;23.298;2023-06-26T12:41:24;68754.53;;;-146.40;43.86
13033;BME280;6583;42.632;23.298;2023-06-26T12:43:55;68752.50;;;-146.40;45.55